AirNav   Everest Fuels
 
 1606 users online  

93Y David City Municipal Airport
David City, Nebraska, USA

GOING TO DAVID CITY?


FAA INFORMATION EFFECTIVE 26 JANUARY 2023

Location

FAA Identifier: 93Y
Lat/Long: 41-13-49.1870N 097-07-21.1110W
41-13.819783N 097-07.351850W
41.2303297,-97.1225308
(estimated)
Elevation: 1617.7 ft. / 493.1 m (surveyed)
Variation: 05E (2005)
From city: 1 mile S of DAVID CITY, NE
Time zone: UTC -6 (UTC -5 during Daylight Saving Time)
Zip code: 68632

Airport Operations

Airport use: Open to the public
Activation date: 04/1948
Control tower: no
ARTCC: MINNEAPOLIS CENTER
FSS: COLUMBUS FLIGHT SERVICE STATION
NOTAMs facility: OLU (NOTAM-D service available)
Attendance: UNATNDD
Wind indicator: lighted
Segmented circle: yes
Lights: ACTVT MIRL RY 14/32; PAPI RYS 14 & 32 - CTAF.
Beacon: white-green (lighted land airport)
Operates sunset to sunrise.

Airport Communications

CTAF: 122.9
OMAHA APPROACH: 124.0
OMAHA DEPARTURE: 124.0
WX AWOS-3PT at OLU (16 nm NW): 125.525 (402-563-3895)

Nearby radio navigation aids

VOR radial/distance  VOR name  Freq  Var
OLUr135/16.4COLUMBUS VOR/DME111.8008E
LNKr308/25.2LINCOLN VORTAC116.1009E
SCBr219/31.6SCRIBNER VOR/DME111.0006E

 
NDB name  Hdg/Dist  Freq  Var  ID
PLATTE CENTER136/19.840708EPLT .--. .-.. -
WAHOO263/23.740006EAHQ .- .... --.-
YORK042/30.025706EJYR .--- -.-- .-.

Airport Services

Fuel available: 100LL
Parking: tiedowns
Airframe service: NONE
Powerplant service: NONE
Bottled oxygen: NONE
Bulk oxygen: NONE

Runway Information

Runway 14/32

Dimensions: 3676 x 60 ft. / 1120 x 18 m
Surface: asphalt, in good condition
Weight bearing capacity: 
Single wheel: 12.5
Runway edge lights: medium intensity
RUNWAY 14  RUNWAY 32
Latitude: 41-14.036168N41-13.536928N
Longitude: 097-07.508718W097-07.055540W
Elevation: 1613.1 ft.1616.6 ft.
Traffic pattern: leftright
Runway heading: 141 magnetic, 146 true321 magnetic, 326 true
Displaced threshold: 74 ft.no
Declared distances: TORA:3675 TODA:3675 ASDA:3675 LDA:3600TORA:3675 TODA:3675 ASDA:3675 LDA:3675
Markings: nonprecision, in good conditionnonprecision, in good condition
Visual slope indicator: 2-light PAPI on left (3.00 degrees glide path)2-light PAPI on left (3.00 degrees glide path)
Runway end identifier lights: yesyes
Touchdown point: yes, no lightsyes, no lights
Obstructions: 13 ft. road, 422 ft. from runway, 16:1 slope to clear
RWY 14 CLNC SLP 33:1 FOR TREE 1892 FT OUT, 58 FT ABV, 89R. 37:1 FM DSPLCD THLD FOR ROAD.
none

Runway 1/19

Dimensions: 2114 x 120 ft. / 644 x 37 m
Surface: turf, in fair condition
Operational restrictions: RY 01/19 NOT PLOWED WINTER MONTHS.
RUNWAY 1  RUNWAY 19
Latitude: 41-13.709108N41-14.045990N
Longitude: 097-07.531190W097-07.415033W
Elevation: 1612.4 ft.1613.8 ft.
Traffic pattern: rightleft
Runway heading: 010 magnetic, 015 true190 magnetic, 195 true
Touchdown point: yes, no lightsyes, no lights
Obstructions: 4 ft. fence, 148 ft. from runway, 134 ft. right of centerline, 37:1 slope to clear14 ft. road, 420 ft. from runway, 30:1 slope to clear

Airport Ownership and Management from official FAA records

Ownership: Publicly-owned
Owner: CITY OF DAVID CITY
P.O. BOX 191
DAVID CITY, NE 68632-0191
Phone 402-367-3135
Manager: CHRIS KROESING
174 WEST E STREET
DAVID CITY, NE 68632-1531
Phone 402-367-3109
FOR SVCS OR EMERG, CALL 402-367-3109/7400.

Airport Operational Statistics

Aircraft based on the field: 11
Single engine airplanes: 11
    
Aircraft operations: avg 65/week *
79% local general aviation
15% transient general aviation
6% military
* for 12-month period ending 03 June 2020

Additional Remarks

FOR CD CTC OMAHA APCH AT 402-682-4395.
24-HR CREDIT CARD FUELING AVBL.

Instrument Procedures

NOTE: All procedures below are presented as PDF files. If you need a reader for these files, you should download the free Adobe Reader.

NOT FOR NAVIGATION. Please procure official charts for flight.
FAA instrument procedures published for use from 26 January 2023 at 0901Z to 23 February 2023 at 0900z.

 
IAPs - Instrument Approach Procedures
RNAV (GPS) RWY 14   download
RNAV (GPS) RWY 32   download
NOTE: Special Take-Off Minimums/Departure Procedures apply   download (147KB)

Other nearby airports with instrument procedures:

KOLU - Columbus Municipal Airport (16 nm NW)
KSWT - Seward Municipal Airport (22 nm S)
KAHQ - Wahoo Municipal Airport (24 nm E)
KLNK - Lincoln Airport (28 nm SE)
KFET - Fremont Municipal Airport (30 nm NE)
 
Loc | Ops | Rwys | IFR | FBO | Links
Com | Nav | Svcs | Stats | Notes
Area around 93Y (David City Municipal Airport)
 
Road maps at: MapQuest Bing Google
 
Aerial photo
WARNING: Photo may not be current or correct
Aerial photo of 93Y (David City Municipal Airport)
Photo by Chase Holoubek
Photo taken 18-Jun-2017
looking southeast.

Do you have a better or more recent aerial photo of David City Municipal Airport that you would like to share? If so, please send us your photo.

 
Sectional chart

 
Airport distance calculator
Flying to David City Municipal Airport? Find the distance to fly.

From to 93Y

Sunrise and sunset
Times for 31-Jan-2023
 Local
(UTC-6)
 Zulu
(UTC)
Morning civil twilight07:1213:12
Sunrise07:4213:42
Sunset17:4223:42
Evening civil twilight18:1200:12

Current date and time
Zulu (UTC)  31-Jan-2023 21:43:56
Local (UTC-6)  31-Jan-2023 15:43:56
 
METAR
KOLU 
16nm NW 
312056Z AUTO 20012KT 10SM CLR M06/M16 A3024 RMK AO2 SLP272 T10611161 56028 FZRANO
KAHQ 
24nm E 
312115Z AUTO 23009KT 10SM M03/M12 A3027 RMK AO2 T10321121
KLNK 
29nm SE 
312054Z 25010KT 10SM CLR M03/M17 A3029 RMK AO2 SLP278 T10331167 56028
KJYR 
30nm SW 
312115Z AUTO 23009KT 10SM CLR M07/M14 A3024 RMK AO2
KFET 
30nm NE 
312115Z AUTO 22007G15KT 10SM CLR M05/M13 A3026 RMK AO2 T10551126
TAF
KLNK 
29nm SE 
311720Z 3118/0118 23011KT P6SM SKC FM010000 19005KT P6SM SKC
NOTAMs
Click for the latest NOTAMs
NOTAMs are issued by the DoD/FAA and will open in a separate window not controlled by AirNav.

 

 
 

FBO, Fuel Providers, and Aircraft Ground Support

  
 Business Name 
 
 Contact 
 
 Services / Description 
 
Fuel Prices
 
Comments
  
City of David City 402-367-3109
no information available

If you are affiliated with City of David City and would like to show here your services, contact info, web link, logo, and more, click here
100LL
AS $7.10 
 Updated 13-Jan-2023
 
   1 read write
AS=Assisted/Self Service
Update Fuel Prices
 

Would you like to see your business listed on this page?

 If your business provides an interesting product or service to pilots, flight crews, aircraft, or users of the David City Municipal Airport, you should consider listing it here.  To start the listing process, click on the button below
 
Add a business
 

Other Pages about David City Municipal Airport

www.davidcityne.com/...
 
Update a link
 
Copyright © AirNav, LLC. All rights reserved. Privacy Policy  Contact